First Clarity — A8RM8 — position and weather

sailwx.info

Track history (hours):
 
Tides and Currents Weather Stations Pressure Air Temp Water Temp Dewpoint Dewpoint Depression Visibility Wind Speed Wind Dir Waves Ship Positions

First Clarity

Last reported at 2015-Apr-09 18:23 UTC. Time now 2015-Apr-21 06:30 UTC.
Position N 35°03' E 129°04'.
Warning: this ship's position is 11 days out of date.

Length 104 m; draft 4.6 m.

Type: Cargo ship. MMSI: 636014129.

Date/timePositionNaut miles runAvg speedWind from/ knotsBaromVisibWave heightAir tempDewpointWater temp
2015-Apr-09 18:23N 35°03' E 129°04'0 0.0
2015-Apr-09 17:26N 35°03' E 129°04'0 0.0
2015-Apr-09 16:05N 35°03' E 129°04'0 0.0
2015-Apr-09 09:26N 35°03' E 129°04'0 0.0
2015-Apr-08 22:17N 35°03' E 129°04'0 0.0
2015-Apr-08 18:23N 35°03' E 129°04'0 0.0
2015-Apr-08 17:26N 35°03' E 129°04'0 0.0
2015-Apr-08 15:23N 35°03' E 129°04'0 0.0
2015-Apr-08 12:23N 35°03' E 129°04'0 0.0
2015-Apr-08 11:23N 35°03' E 129°04'0 0.0
2015-Apr-08 10:29N 35°03' E 129°04'0 0.0
2015-Apr-08 06:14N 35°03' E 129°04'0 0.0
2015-Apr-07 20:05N 35°03' E 129°04'0 0.0
2015-Apr-07 14:29N 35°03' E 129°04'1 0.1
2015-Apr-07 04:12N 35°02' E 129°03'0 0.0
2015-Apr-07 00:30N 35°02' E 129°03'0 0.0
2015-Apr-06 21:06N 35°02' E 129°03'0 0.0
2015-Apr-06 20:18N 35°02' E 129°03'0 0.0
2015-Apr-06 19:30N 35°02' E 129°03'0 0.0
2015-Apr-06 12:15N 35°02' E 129°03'0 0.0
2015-Apr-06 10:33N 35°02' E 129°03'0 0.0
2015-Apr-06 00:18N 35°02' E 129°03'0 0.0
2015-Apr-05 23:18N 35°02' E 129°03'0 0.0
2015-Apr-05 22:24N 35°02' E 129°03'0 0.0
2015-Apr-05 21:30N 35°02' E 129°03'0 0.0
2015-Apr-05 20:24N 35°02' E 129°03'0 0.0
2015-Apr-05 11:09N 35°02' E 129°03'0 0.1
2015-Apr-05 10:24N 35°02' E 129°03'0 0.1
2015-Apr-05 09:30N 35°02' E 129°03'0 0.1
2015-Apr-05 08:33N 35°02' E 129°03'0 0.0
2015-Apr-05 05:30N 35°02' E 129°03'0 0.0
2015-Apr-05 00:06N 35°02' E 129°03'7 1.0
2015-Apr-04 16:15N 35°01' E 129°12'9 9.6
2015-Apr-04 15:18N 35°08' E 129°19'  
2015-Apr-02 02:30N 34°04' E 130°47'  
Track history (hours):
 
Tides and Currents Weather Stations Pressure Air Temp Water Temp Dewpoint Dewpoint Depression Visibility Wind Speed Wind Dir Waves Ship Positions

First Clarity

Last reported at 2015-Apr-09 18:23 UTC. Time now 2015-Apr-21 06:30 UTC.
Position N 35°03' E 129°04'.
Warning: this ship's position is 11 days out of date.

Length 104 m; draft 4.6 m.

Type: Cargo ship. MMSI: 636014129.

Date/timePositionNaut miles runAvg speedWind from/ knotsBaromVisibWave heightAir tempDewpointWater temp
2015-Apr-09 18:23N 35°03' E 129°04'0 0.0
2015-Apr-09 17:26N 35°03' E 129°04'0 0.0
2015-Apr-09 16:05N 35°03' E 129°04'0 0.0
2015-Apr-09 09:26N 35°03' E 129°04'0 0.0
2015-Apr-08 22:17N 35°03' E 129°04'0 0.0
2015-Apr-08 18:23N 35°03' E 129°04'0 0.0
2015-Apr-08 17:26N 35°03' E 129°04'0 0.0
2015-Apr-08 15:23N 35°03' E 129°04'0 0.0
2015-Apr-08 12:23N 35°03' E 129°04'0 0.0
2015-Apr-08 11:23N 35°03' E 129°04'0 0.0
2015-Apr-08 10:29N 35°03' E 129°04'0 0.0
2015-Apr-08 06:14N 35°03' E 129°04'0 0.0
2015-Apr-07 20:05N 35°03' E 129°04'0 0.0
2015-Apr-07 14:29N 35°03' E 129°04'1 0.1
2015-Apr-07 04:12N 35°02' E 129°03'0 0.0
2015-Apr-07 00:30N 35°02' E 129°03'0 0.0
2015-Apr-06 21:06N 35°02' E 129°03'0 0.0
2015-Apr-06 20:18N 35°02' E 129°03'0 0.0
2015-Apr-06 19:30N 35°02' E 129°03'0 0.0
2015-Apr-06 12:15N 35°02' E 129°03'0 0.0
2015-Apr-06 10:33N 35°02' E 129°03'0 0.0
2015-Apr-06 00:18N 35°02' E 129°03'0 0.0
2015-Apr-05 23:18N 35°02' E 129°03'0 0.0
2015-Apr-05 22:24N 35°02' E 129°03'0 0.0
2015-Apr-05 21:30N 35°02' E 129°03'0 0.0
2015-Apr-05 20:24N 35°02' E 129°03'0 0.0
2015-Apr-05 11:09N 35°02' E 129°03'0 0.1
2015-Apr-05 10:24N 35°02' E 129°03'0 0.1
2015-Apr-05 09:30N 35°02' E 129°03'0 0.1
2015-Apr-05 08:33N 35°02' E 129°03'0 0.0
2015-Apr-05 05:30N 35°02' E 129°03'0 0.0
2015-Apr-05 00:06N 35°02' E 129°03'7 1.0
2015-Apr-04 16:15N 35°01' E 129°12'9 9.6
2015-Apr-04 15:18N 35°08' E 129°19'  
2015-Apr-02 02:30N 34°04' E 130°47'  

Dump ship's entire track history